Terminal Aerodrome Forecast
Issued by NWS Lake Charles, LA

Home | Current Version | Previous Version | Text Only | Print | Product List | Glossary On
Versions: 1 2 3 4 5 6 7 8 9 10 11 12 13
000
FTUS44 KLCH 291100
TAFAEX
TAF
KAEX 291135Z 2912/3012 13005KT P6SM SCT040 BKN100
     FM291700 14008KT P6SM SCT040 BKN100
     FM292100 12006KT P6SM VCSH BKN019 OVC030
     FM300000 12004KT P6SM VCSH SCT019 OVC040
     FM301000 12004KT 3SM RA BR BKN019 OVC035=

USA.gov is the U.S. government's official web portal to all federal, state and local government web resources and services.